sensor_id;sensor_type;location;lat;lon;timestamp;P1;durP1;ratioP1;P2;durP2;ratioP2
55575;SDS011;41437;45.478;9.116;2023-03-08T00:01:23;29.73;;;18.20;;
55575;SDS011;41437;45.478;9.116;2023-03-08T00:04:25;32.08;;;17.63;;
55575;SDS011;41437;45.478;9.116;2023-03-08T00:07:27;29.40;;;16.63;;
55575;SDS011;41437;45.478;9.116;2023-03-08T00:10:28;33.95;;;18.00;;
55575;SDS011;41437;45.478;9.116;2023-03-08T00:13:30;28.60;;;17.58;;
55575;SDS011;41437;45.478;9.116;2023-03-08T00:16:33;29.75;;;18.73;;
55575;SDS011;41437;45.478;9.116;2023-03-08T00:19:35;27.52;;;16.10;;
55575;SDS011;41437;45.478;9.116;2023-03-08T00:22:37;30.65;;;18.85;;
55575;SDS011;41437;45.478;9.116;2023-03-08T00:25:43;31.73;;;19.55;;
55575;SDS011;41437;45.478;9.116;2023-03-08T00:28:45;33.20;;;19.90;;
55575;SDS011;41437;45.478;9.116;2023-03-08T00:31:49;30.67;;;19.10;;
55575;SDS011;41437;45.478;9.116;2023-03-08T00:34:50;29.33;;;16.85;;
55575;SDS011;41437;45.478;9.116;2023-03-08T00:37:52;34.80;;;17.75;;
55575;SDS011;41437;45.478;9.116;2023-03-08T00:40:54;34.05;;;17.98;;
55575;SDS011;41437;45.478;9.116;2023-03-08T00:43:58;31.42;;;18.25;;
55575;SDS011;41437;45.478;9.116;2023-03-08T00:47:01;28.83;;;18.38;;
55575;SDS011;41437;45.478;9.116;2023-03-08T00:50:03;30.42;;;19.13;;
55575;SDS011;41437;45.478;9.116;2023-03-08T00:53:09;33.22;;;19.52;;
55575;SDS011;41437;45.478;9.116;2023-03-08T00:56:11;31.92;;;18.77;;
55575;SDS011;41437;45.478;9.116;2023-03-08T00:59:13;34.17;;;19.50;;
55575;SDS011;41437;45.478;9.116;2023-03-08T01:02:16;32.78;;;19.23;;
55575;SDS011;41437;45.478;9.116;2023-03-08T01:05:18;36.55;;;19.83;;
55575;SDS011;41437;45.478;9.116;2023-03-08T01:08:20;28.77;;;17.80;;
55575;SDS011;41437;45.478;9.116;2023-03-08T01:11:24;32.03;;;17.92;;
55575;SDS011;41437;45.478;9.116;2023-03-08T01:14:26;27.65;;;17.38;;
55575;SDS011;41437;45.478;9.116;2023-03-08T01:17:31;23.58;;;15.35;;
55575;SDS011;41437;45.478;9.116;2023-03-08T01:20:33;28.13;;;15.80;;
55575;SDS011;41437;45.478;9.116;2023-03-08T01:23:34;27.75;;;16.58;;
55575;SDS011;41437;45.478;9.116;2023-03-08T01:26:36;31.40;;;17.08;;
55575;SDS011;41437;45.478;9.116;2023-03-08T01:29:40;33.30;;;17.20;;
55575;SDS011;41437;45.478;9.116;2023-03-08T01:32:43;28.02;;;16.15;;
55575;SDS011;41437;45.478;9.116;2023-03-08T01:35:44;30.30;;;16.73;;
55575;SDS011;41437;45.478;9.116;2023-03-08T01:38:48;27.88;;;16.40;;
55575;SDS011;41437;45.478;9.116;2023-03-08T01:41:51;30.15;;;17.25;;
55575;SDS011;41437;45.478;9.116;2023-03-08T01:44:53;26.48;;;17.13;;
55575;SDS011;41437;45.478;9.116;2023-03-08T01:47:58;27.00;;;16.77;;
55575;SDS011;41437;45.478;9.116;2023-03-08T01:51:00;26.33;;;16.47;;
55575;SDS011;41437;45.478;9.116;2023-03-08T01:54:06;26.58;;;16.38;;
55575;SDS011;41437;45.478;9.116;2023-03-08T01:57:12;27.88;;;15.77;;
55575;SDS011;41437;45.478;9.116;2023-03-08T02:00:18;27.92;;;16.02;;
55575;SDS011;41437;45.478;9.116;2023-03-08T02:03:23;31.55;;;15.90;;
55575;SDS011;41437;45.478;9.116;2023-03-08T02:06:24;28.58;;;15.85;;
55575;SDS011;41437;45.478;9.116;2023-03-08T02:09:27;28.52;;;15.98;;
55575;SDS011;41437;45.478;9.116;2023-03-08T02:12:29;26.42;;;15.65;;
55575;SDS011;41437;45.478;9.116;2023-03-08T02:15:32;27.10;;;15.63;;
55575;SDS011;41437;45.478;9.116;2023-03-08T02:18:35;33.03;;;16.70;;
55575;SDS011;41437;45.478;9.116;2023-03-08T02:21:36;26.38;;;16.17;;
55575;SDS011;41437;45.478;9.116;2023-03-08T02:24:39;30.70;;;17.42;;
55575;SDS011;41437;45.478;9.116;2023-03-08T02:27:41;32.30;;;17.73;;
55575;SDS011;41437;45.478;9.116;2023-03-08T02:30:43;30.27;;;16.08;;
55575;SDS011;41437;45.478;9.116;2023-03-08T02:33:45;27.10;;;15.90;;
55575;SDS011;41437;45.478;9.116;2023-03-08T02:36:48;30.37;;;15.77;;
55575;SDS011;41437;45.478;9.116;2023-03-08T02:39:51;29.45;;;16.42;;
55575;SDS011;41437;45.478;9.116;2023-03-08T02:42:53;31.73;;;17.73;;
55575;SDS011;41437;45.478;9.116;2023-03-08T02:45:55;31.58;;;17.60;;
55575;SDS011;41437;45.478;9.116;2023-03-08T02:48:57;30.65;;;17.55;;
55575;SDS011;41437;45.478;9.116;2023-03-08T02:55:16;29.40;;;16.65;;
55575;SDS011;41437;45.478;9.116;2023-03-08T02:58:17;28.17;;;17.37;;
55575;SDS011;41437;45.478;9.116;2023-03-08T03:01:25;29.80;;;16.38;;
55575;SDS011;41437;45.478;9.116;2023-03-08T03:04:27;29.77;;;16.38;;
55575;SDS011;41437;45.478;9.116;2023-03-08T03:07:33;31.33;;;16.95;;
55575;SDS011;41437;45.478;9.116;2023-03-08T03:10:38;31.58;;;16.83;;
55575;SDS011;41437;45.478;9.116;2023-03-08T03:13:41;33.80;;;18.33;;
55575;SDS011;41437;45.478;9.116;2023-03-08T03:16:43;35.45;;;17.60;;
55575;SDS011;41437;45.478;9.116;2023-03-08T03:19:45;27.33;;;15.98;;
55575;SDS011;41437;45.478;9.116;2023-03-08T03:22:47;29.45;;;16.40;;
55575;SDS011;41437;45.478;9.116;2023-03-08T03:25:50;28.17;;;16.42;;
55575;SDS011;41437;45.478;9.116;2023-03-08T03:28:54;24.60;;;15.65;;
55575;SDS011;41437;45.478;9.116;2023-03-08T03:31:57;28.42;;;16.42;;
55575;SDS011;41437;45.478;9.116;2023-03-08T03:34:59;28.50;;;16.55;;
55575;SDS011;41437;45.478;9.116;2023-03-08T03:38:03;27.15;;;16.40;;
55575;SDS011;41437;45.478;9.116;2023-03-08T03:41:07;30.27;;;16.17;;
55575;SDS011;41437;45.478;9.116;2023-03-08T03:44:10;30.73;;;16.88;;
55575;SDS011;41437;45.478;9.116;2023-03-08T03:47:13;29.85;;;16.05;;
55575;SDS011;41437;45.478;9.116;2023-03-08T03:50:16;29.25;;;16.60;;
55575;SDS011;41437;45.478;9.116;2023-03-08T03:53:17;28.85;;;14.80;;
55575;SDS011;41437;45.478;9.116;2023-03-08T03:56:24;25.38;;;14.98;;
55575;SDS011;41437;45.478;9.116;2023-03-08T03:59:26;26.73;;;15.68;;
55575;SDS011;41437;45.478;9.116;2023-03-08T04:02:28;26.83;;;15.57;;
55575;SDS011;41437;45.478;9.116;2023-03-08T04:05:29;30.10;;;17.05;;
55575;SDS011;41437;45.478;9.116;2023-03-08T04:08:31;30.45;;;16.83;;
55575;SDS011;41437;45.478;9.116;2023-03-08T04:11:36;29.33;;;16.33;;
55575;SDS011;41437;45.478;9.116;2023-03-08T04:14:39;28.17;;;16.13;;
55575;SDS011;41437;45.478;9.116;2023-03-08T04:17:43;24.40;;;16.23;;
55575;SDS011;41437;45.478;9.116;2023-03-08T04:20:45;28.35;;;16.40;;
55575;SDS011;41437;45.478;9.116;2023-03-08T04:23:47;25.63;;;15.68;;
55575;SDS011;41437;45.478;9.116;2023-03-08T04:26:51;28.60;;;15.95;;
55575;SDS011;41437;45.478;9.116;2023-03-08T04:29:52;27.83;;;15.77;;
55575;SDS011;41437;45.478;9.116;2023-03-08T04:32:55;26.77;;;14.95;;
55575;SDS011;41437;45.478;9.116;2023-03-08T04:35:58;30.27;;;16.52;;
55575;SDS011;41437;45.478;9.116;2023-03-08T04:38:59;26.77;;;14.50;;
55575;SDS011;41437;45.478;9.116;2023-03-08T04:42:04;25.85;;;15.20;;
55575;SDS011;41437;45.478;9.116;2023-03-08T04:45:07;27.58;;;14.82;;
55575;SDS011;41437;45.478;9.116;2023-03-08T04:48:09;25.73;;;15.00;;
55575;SDS011;41437;45.478;9.116;2023-03-08T04:51:13;24.88;;;14.88;;
55575;SDS011;41437;45.478;9.116;2023-03-08T04:54:17;26.25;;;14.90;;
55575;SDS011;41437;45.478;9.116;2023-03-08T04:57:23;23.35;;;15.10;;
55575;SDS011;41437;45.478;9.116;2023-03-08T05:00:25;24.75;;;14.55;;
55575;SDS011;41437;45.478;9.116;2023-03-08T05:03:26;27.45;;;14.80;;
55575;SDS011;41437;45.478;9.116;2023-03-08T05:06:28;24.42;;;14.27;;
55575;SDS011;41437;45.478;9.116;2023-03-08T05:09:30;26.90;;;15.07;;
55575;SDS011;41437;45.478;9.116;2023-03-08T05:12:33;24.75;;;14.20;;
55575;SDS011;41437;45.478;9.116;2023-03-08T05:15:34;23.85;;;14.40;;
55575;SDS011;41437;45.478;9.116;2023-03-08T05:18:37;22.90;;;14.38;;
55575;SDS011;41437;45.478;9.116;2023-03-08T05:21:39;24.02;;;14.00;;
55575;SDS011;41437;45.478;9.116;2023-03-08T05:24:40;26.60;;;13.82;;
55575;SDS011;41437;45.478;9.116;2023-03-08T05:27:46;25.58;;;13.82;;
55575;SDS011;41437;45.478;9.116;2023-03-08T05:30:48;24.67;;;14.35;;
55575;SDS011;41437;45.478;9.116;2023-03-08T05:33:50;29.80;;;14.80;;
55575;SDS011;41437;45.478;9.116;2023-03-08T05:36:52;27.13;;;16.08;;
55575;SDS011;41437;45.478;9.116;2023-03-08T05:39:54;22.92;;;14.48;;
55575;SDS011;41437;45.478;9.116;2023-03-08T05:42:57;28.88;;;14.50;;
55575;SDS011;41437;45.478;9.116;2023-03-08T05:46:00;27.77;;;14.52;;
55575;SDS011;41437;45.478;9.116;2023-03-08T05:49:07;27.63;;;14.32;;
55575;SDS011;41437;45.478;9.116;2023-03-08T05:55:14;24.33;;;13.95;;
55575;SDS011;41437;45.478;9.116;2023-03-08T05:58:17;23.80;;;13.40;;
55575;SDS011;41437;45.478;9.116;2023-03-08T06:01:19;23.77;;;13.80;;
55575;SDS011;41437;45.478;9.116;2023-03-08T06:04:23;30.58;;;14.40;;
55575;SDS011;41437;45.478;9.116;2023-03-08T06:07:28;26.25;;;13.35;;
55575;SDS011;41437;45.478;9.116;2023-03-08T06:10:29;24.98;;;13.90;;
55575;SDS011;41437;45.478;9.116;2023-03-08T06:13:34;21.20;;;12.93;;
55575;SDS011;41437;45.478;9.116;2023-03-08T06:16:36;23.07;;;13.47;;
55575;SDS011;41437;45.478;9.116;2023-03-08T06:19:40;25.65;;;13.93;;
55575;SDS011;41437;45.478;9.116;2023-03-08T06:22:42;28.70;;;14.90;;
55575;SDS011;41437;45.478;9.116;2023-03-08T06:25:45;24.60;;;14.07;;
55575;SDS011;41437;45.478;9.116;2023-03-08T06:28:49;21.33;;;13.65;;
55575;SDS011;41437;45.478;9.116;2023-03-08T06:31:51;27.17;;;14.98;;
55575;SDS011;41437;45.478;9.116;2023-03-08T06:34:52;22.58;;;13.40;;
55575;SDS011;41437;45.478;9.116;2023-03-08T06:37:54;23.05;;;13.55;;
55575;SDS011;41437;45.478;9.116;2023-03-08T06:40:57;25.63;;;13.85;;
55575;SDS011;41437;45.478;9.116;2023-03-08T06:44:04;28.42;;;15.30;;
55575;SDS011;41437;45.478;9.116;2023-03-08T06:47:07;24.92;;;14.25;;
55575;SDS011;41437;45.478;9.116;2023-03-08T06:50:10;23.42;;;13.57;;
55575;SDS011;41437;45.478;9.116;2023-03-08T06:53:12;22.88;;;13.45;;
55575;SDS011;41437;45.478;9.116;2023-03-08T06:56:14;23.48;;;13.43;;
55575;SDS011;41437;45.478;9.116;2023-03-08T06:59:22;24.67;;;14.00;;
55575;SDS011;41437;45.478;9.116;2023-03-08T07:02:24;23.98;;;13.77;;
55575;SDS011;41437;45.478;9.116;2023-03-08T07:05:28;24.65;;;13.68;;
55575;SDS011;41437;45.478;9.116;2023-03-08T07:08:32;25.98;;;13.10;;
55575;SDS011;41437;45.478;9.116;2023-03-08T07:11:34;25.77;;;13.60;;
55575;SDS011;41437;45.478;9.116;2023-03-08T07:14:40;22.02;;;13.55;;
55575;SDS011;41437;45.478;9.116;2023-03-08T07:17:42;26.40;;;15.02;;
55575;SDS011;41437;45.478;9.116;2023-03-08T07:23:52;26.58;;;14.70;;
55575;SDS011;41437;45.478;9.116;2023-03-08T07:26:55;25.27;;;15.18;;
55575;SDS011;41437;45.478;9.116;2023-03-08T07:29:59;30.08;;;14.93;;
55575;SDS011;41437;45.478;9.116;2023-03-08T07:33:01;29.58;;;16.10;;
55575;SDS011;41437;45.478;9.116;2023-03-08T07:36:03;29.30;;;16.55;;
55575;SDS011;41437;45.478;9.116;2023-03-08T07:39:04;31.58;;;15.93;;
55575;SDS011;41437;45.478;9.116;2023-03-08T07:42:06;27.77;;;16.23;;
55575;SDS011;41437;45.478;9.116;2023-03-08T07:45:09;28.15;;;16.15;;
55575;SDS011;41437;45.478;9.116;2023-03-08T07:48:11;28.55;;;16.88;;
55575;SDS011;41437;45.478;9.116;2023-03-08T07:51:13;33.50;;;17.88;;
55575;SDS011;41437;45.478;9.116;2023-03-08T07:54:16;33.38;;;17.48;;
55575;SDS011;41437;45.478;9.116;2023-03-08T07:57:19;30.70;;;17.88;;
55575;SDS011;41437;45.478;9.116;2023-03-08T08:00:22;35.42;;;17.83;;
55575;SDS011;41437;45.478;9.116;2023-03-08T08:03:24;30.05;;;17.40;;
55575;SDS011;41437;45.478;9.116;2023-03-08T08:06:26;28.88;;;17.98;;
55575;SDS011;41437;45.478;9.116;2023-03-08T08:09:28;32.80;;;17.85;;
55575;SDS011;41437;45.478;9.116;2023-03-08T08:12:33;30.42;;;17.50;;
55575;SDS011;41437;45.478;9.116;2023-03-08T08:15:39;31.30;;;17.27;;
55575;SDS011;41437;45.478;9.116;2023-03-08T08:18:41;28.73;;;17.92;;
55575;SDS011;41437;45.478;9.116;2023-03-08T08:21:43;33.17;;;20.02;;
55575;SDS011;41437;45.478;9.116;2023-03-08T08:24:45;31.92;;;18.05;;
55575;SDS011;41437;45.478;9.116;2023-03-08T08:27:50;29.88;;;17.90;;
55575;SDS011;41437;45.478;9.116;2023-03-08T08:30:55;32.20;;;19.23;;
55575;SDS011;41437;45.478;9.116;2023-03-08T08:33:58;32.92;;;19.23;;
55575;SDS011;41437;45.478;9.116;2023-03-08T08:37:03;32.08;;;18.48;;
55575;SDS011;41437;45.478;9.116;2023-03-08T08:40:07;31.20;;;18.90;;
55575;SDS011;41437;45.478;9.116;2023-03-08T08:43:11;33.80;;;19.30;;
55575;SDS011;41437;45.478;9.116;2023-03-08T08:46:15;35.60;;;18.27;;
55575;SDS011;41437;45.478;9.116;2023-03-08T08:52:19;29.27;;;19.27;;
55575;SDS011;41437;45.478;9.116;2023-03-08T08:55:23;40.17;;;20.00;;
55575;SDS011;41437;45.478;9.116;2023-03-08T08:58:25;30.00;;;18.50;;
55575;SDS011;41437;45.478;9.116;2023-03-08T09:01:32;33.40;;;20.23;;
55575;SDS011;41437;45.478;9.116;2023-03-08T09:04:42;31.17;;;19.35;;
55575;SDS011;41437;45.478;9.116;2023-03-08T09:07:43;30.45;;;20.38;;
55575;SDS011;41437;45.478;9.116;2023-03-08T09:10:45;34.00;;;19.52;;
55575;SDS011;41437;45.478;9.116;2023-03-08T09:13:47;31.95;;;19.30;;
55575;SDS011;41437;45.478;9.116;2023-03-08T09:20:13;37.67;;;20.92;;
55575;SDS011;41437;45.478;9.116;2023-03-08T09:23:17;31.27;;;20.48;;
55575;SDS011;41437;45.478;9.116;2023-03-08T09:26:19;36.55;;;21.30;;
55575;SDS011;41437;45.478;9.116;2023-03-08T09:29:21;32.55;;;21.30;;
55575;SDS011;41437;45.478;9.116;2023-03-08T09:32:23;32.03;;;20.38;;
55575;SDS011;41437;45.478;9.116;2023-03-08T09:35:29;33.40;;;19.73;;
55575;SDS011;41437;45.478;9.116;2023-03-08T09:38:30;34.90;;;20.83;;
55575;SDS011;41437;45.478;9.116;2023-03-08T09:41:46;31.50;;;20.20;;
55575;SDS011;41437;45.478;9.116;2023-03-08T09:44:54;31.23;;;19.95;;
55575;SDS011;41437;45.478;9.116;2023-03-08T09:48:03;29.77;;;20.60;;
55575;SDS011;41437;45.478;9.116;2023-03-08T09:51:11;32.40;;;19.85;;
55575;SDS011;41437;45.478;9.116;2023-03-08T09:54:17;36.72;;;19.92;;
55575;SDS011;41437;45.478;9.116;2023-03-08T09:57:24;32.30;;;18.98;;
55575;SDS011;41437;45.478;9.116;2023-03-08T10:00:30;33.30;;;20.63;;
55575;SDS011;41437;45.478;9.116;2023-03-08T10:03:48;38.63;;;21.02;;
55575;SDS011;41437;45.478;9.116;2023-03-08T10:07:24;28.50;;;15.80;;
55575;SDS011;41437;45.478;9.116;2023-03-08T10:10:37;30.77;;;18.23;;
55575;SDS011;41437;45.478;9.116;2023-03-08T10:13:46;27.27;;;16.42;;
55575;SDS011;41437;45.478;9.116;2023-03-08T10:16:51;27.92;;;15.70;;
55575;SDS011;41437;45.478;9.116;2023-03-08T10:19:57;24.98;;;14.00;;
55575;SDS011;41437;45.478;9.116;2023-03-08T10:23:09;23.75;;;13.93;;
55575;SDS011;41437;45.478;9.116;2023-03-08T10:26:14;23.77;;;13.82;;
55575;SDS011;41437;45.478;9.116;2023-03-08T10:29:17;21.23;;;12.40;;
55575;SDS011;41437;45.478;9.116;2023-03-08T10:32:20;27.30;;;14.70;;
55575;SDS011;41437;45.478;9.116;2023-03-08T10:35:30;33.37;;;17.47;;
55575;SDS011;41437;45.478;9.116;2023-03-08T10:38:35;25.45;;;15.68;;
55575;SDS011;41437;45.478;9.116;2023-03-08T10:41:40;19.88;;;9.60;;
55575;SDS011;41437;45.478;9.116;2023-03-08T10:44:46;21.17;;;10.82;;
55575;SDS011;41437;45.478;9.116;2023-03-08T10:47:57;21.63;;;10.70;;
55575;SDS011;41437;45.478;9.116;2023-03-08T10:54:05;21.13;;;10.40;;
55575;SDS011;41437;45.478;9.116;2023-03-08T10:57:15;18.75;;;10.45;;
55575;SDS011;41437;45.478;9.116;2023-03-08T11:00:30;23.60;;;12.55;;
55575;SDS011;41437;45.478;9.116;2023-03-08T11:03:34;21.75;;;12.85;;
55575;SDS011;41437;45.478;9.116;2023-03-08T11:06:36;20.33;;;12.35;;
55575;SDS011;41437;45.478;9.116;2023-03-08T11:09:39;22.92;;;10.98;;
55575;SDS011;41437;45.478;9.116;2023-03-08T11:12:41;17.58;;;8.45;;
55575;SDS011;41437;45.478;9.116;2023-03-08T11:15:45;17.63;;;9.30;;
55575;SDS011;41437;45.478;9.116;2023-03-08T11:18:59;14.40;;;8.30;;
55575;SDS011;41437;45.478;9.116;2023-03-08T11:22:11;17.67;;;8.70;;
55575;SDS011;41437;45.478;9.116;2023-03-08T11:25:37;18.05;;;9.13;;
55575;SDS011;41437;45.478;9.116;2023-03-08T11:28:49;18.60;;;9.07;;
55575;SDS011;41437;45.478;9.116;2023-03-08T11:32:06;16.00;;;9.52;;
55575;SDS011;41437;45.478;9.116;2023-03-08T11:35:19;19.47;;;10.67;;
55575;SDS011;41437;45.478;9.116;2023-03-08T11:38:30;19.02;;;11.88;;
55575;SDS011;41437;45.478;9.116;2023-03-08T11:41:36;20.65;;;12.48;;
55575;SDS011;41437;45.478;9.116;2023-03-08T11:44:50;24.17;;;12.63;;
55575;SDS011;41437;45.478;9.116;2023-03-08T11:48:07;24.25;;;13.07;;
55575;SDS011;41437;45.478;9.116;2023-03-08T11:51:23;24.23;;;13.15;;
55575;SDS011;41437;45.478;9.116;2023-03-08T11:54:38;24.67;;;12.38;;
55575;SDS011;41437;45.478;9.116;2023-03-08T11:57:51;23.08;;;12.77;;
55575;SDS011;41437;45.478;9.116;2023-03-08T12:01:04;23.38;;;13.43;;
55575;SDS011;41437;45.478;9.116;2023-03-08T12:04:10;20.27;;;12.82;;
55575;SDS011;41437;45.478;9.116;2023-03-08T12:07:17;25.45;;;13.10;;
55575;SDS011;41437;45.478;9.116;2023-03-08T12:10:27;21.80;;;12.65;;
55575;SDS011;41437;45.478;9.116;2023-03-08T12:13:35;23.77;;;14.30;;
55575;SDS011;41437;45.478;9.116;2023-03-08T12:16:39;24.52;;;14.52;;
55575;SDS011;41437;45.478;9.116;2023-03-08T12:19:48;27.42;;;13.68;;
55575;SDS011;41437;45.478;9.116;2023-03-08T12:22:52;23.50;;;12.97;;
55575;SDS011;41437;45.478;9.116;2023-03-08T12:26:00;20.48;;;13.68;;
55575;SDS011;41437;45.478;9.116;2023-03-08T12:29:10;22.92;;;12.15;;
55575;SDS011;41437;45.478;9.116;2023-03-08T12:32:18;17.38;;;11.13;;
55575;SDS011;41437;45.478;9.116;2023-03-08T12:35:26;18.10;;;11.63;;
55575;SDS011;41437;45.478;9.116;2023-03-08T12:38:31;17.48;;;9.10;;
55575;SDS011;41437;45.478;9.116;2023-03-08T12:41:35;14.65;;;7.55;;
55575;SDS011;41437;45.478;9.116;2023-03-08T12:44:38;12.35;;;6.40;;
55575;SDS011;41437;45.478;9.116;2023-03-08T12:47:52;13.40;;;5.75;;
55575;SDS011;41437;45.478;9.116;2023-03-08T12:50:58;10.27;;;5.25;;
55575;SDS011;41437;45.478;9.116;2023-03-08T12:54:15;9.93;;;5.53;;
55575;SDS011;41437;45.478;9.116;2023-03-08T12:57:26;14.57;;;5.85;;
55575;SDS011;41437;45.478;9.116;2023-03-08T13:00:33;12.15;;;6.72;;
55575;SDS011;41437;45.478;9.116;2023-03-08T13:03:40;15.85;;;7.22;;
55575;SDS011;41437;45.478;9.116;2023-03-08T13:10:22;14.10;;;7.00;;
55575;SDS011;41437;45.478;9.116;2023-03-08T13:13:37;14.25;;;6.90;;
55575;SDS011;41437;45.478;9.116;2023-03-08T13:16:47;13.23;;;6.50;;
55575;SDS011;41437;45.478;9.116;2023-03-08T13:19:49;13.35;;;7.18;;
55575;SDS011;41437;45.478;9.116;2023-03-08T13:23:00;14.50;;;7.38;;
55575;SDS011;41437;45.478;9.116;2023-03-08T13:26:12;13.85;;;7.88;;
55575;SDS011;41437;45.478;9.116;2023-03-08T13:29:31;13.85;;;8.32;;
55575;SDS011;41437;45.478;9.116;2023-03-08T13:32:37;16.83;;;8.13;;
55575;SDS011;41437;45.478;9.116;2023-03-08T13:35:39;14.77;;;6.95;;
55575;SDS011;41437;45.478;9.116;2023-03-08T13:38:42;15.85;;;5.78;;
55575;SDS011;41437;45.478;9.116;2023-03-08T13:41:45;13.88;;;5.60;;
55575;SDS011;41437;45.478;9.116;2023-03-08T13:44:48;12.38;;;5.20;;
55575;SDS011;41437;45.478;9.116;2023-03-08T13:47:51;11.50;;;5.22;;
55575;SDS011;41437;45.478;9.116;2023-03-08T13:50:57;10.48;;;5.22;;
55575;SDS011;41437;45.478;9.116;2023-03-08T13:54:03;13.57;;;5.63;;
55575;SDS011;41437;45.478;9.116;2023-03-08T13:57:06;12.65;;;6.18;;
55575;SDS011;41437;45.478;9.116;2023-03-08T14:00:25;14.13;;;5.65;;
55575;SDS011;41437;45.478;9.116;2023-03-08T14:03:41;13.63;;;5.40;;
55575;SDS011;41437;45.478;9.116;2023-03-08T14:06:47;9.25;;;4.40;;
55575;SDS011;41437;45.478;9.116;2023-03-08T14:09:50;10.20;;;4.70;;
55575;SDS011;41437;45.478;9.116;2023-03-08T14:12:52;9.98;;;5.10;;
55575;SDS011;41437;45.478;9.116;2023-03-08T14:15:55;15.00;;;4.80;;
55575;SDS011;41437;45.478;9.116;2023-03-08T14:19:07;9.57;;;4.90;;
55575;SDS011;41437;45.478;9.116;2023-03-08T14:22:11;11.70;;;4.43;;
55575;SDS011;41437;45.478;9.116;2023-03-08T14:25:22;12.25;;;4.65;;
55575;SDS011;41437;45.478;9.116;2023-03-08T14:28:36;8.45;;;4.70;;
55575;SDS011;41437;45.478;9.116;2023-03-08T14:31:50;10.95;;;4.60;;
55575;SDS011;41437;45.478;9.116;2023-03-08T14:35:03;13.93;;;4.85;;
55575;SDS011;41437;45.478;9.116;2023-03-08T14:38:19;13.95;;;4.50;;
55575;SDS011;41437;45.478;9.116;2023-03-08T14:41:30;15.82;;;5.00;;
55575;SDS011;41437;45.478;9.116;2023-03-08T14:44:35;11.05;;;5.05;;
55575;SDS011;41437;45.478;9.116;2023-03-08T14:47:37;13.82;;;5.40;;
55575;SDS011;41437;45.478;9.116;2023-03-08T14:50:49;10.43;;;4.63;;
55575;SDS011;41437;45.478;9.116;2023-03-08T14:53:57;10.98;;;4.80;;
55575;SDS011;41437;45.478;9.116;2023-03-08T14:57:01;13.77;;;4.43;;
55575;SDS011;41437;45.478;9.116;2023-03-08T15:00:14;11.52;;;4.50;;
55575;SDS011;41437;45.478;9.116;2023-03-08T15:03:19;11.88;;;4.38;;
55575;SDS011;41437;45.478;9.116;2023-03-08T15:06:24;11.68;;;4.22;;
55575;SDS011;41437;45.478;9.116;2023-03-08T15:09:28;13.32;;;4.22;;
55575;SDS011;41437;45.478;9.116;2023-03-08T15:12:31;12.17;;;4.00;;
55575;SDS011;41437;45.478;9.116;2023-03-08T15:15:32;12.60;;;3.47;;
55575;SDS011;41437;45.478;9.116;2023-03-08T15:18:35;17.67;;;4.38;;
55575;SDS011;41437;45.478;9.116;2023-03-08T15:21:39;8.88;;;4.10;;
55575;SDS011;41437;45.478;9.116;2023-03-08T15:24:43;13.43;;;3.92;;
55575;SDS011;41437;45.478;9.116;2023-03-08T15:27:45;12.30;;;4.20;;
55575;SDS011;41437;45.478;9.116;2023-03-08T15:30:47;17.02;;;4.22;;
55575;SDS011;41437;45.478;9.116;2023-03-08T15:33:51;13.15;;;4.47;;
55575;SDS011;41437;45.478;9.116;2023-03-08T15:36:54;13.07;;;4.47;;
55575;SDS011;41437;45.478;9.116;2023-03-08T15:39:56;9.90;;;4.00;;
55575;SDS011;41437;45.478;9.116;2023-03-08T15:42:57;11.75;;;4.05;;
55575;SDS011;41437;45.478;9.116;2023-03-08T15:46:10;8.18;;;4.00;;
55575;SDS011;41437;45.478;9.116;2023-03-08T15:49:21;14.27;;;4.40;;
55575;SDS011;41437;45.478;9.116;2023-03-08T15:52:28;14.35;;;4.32;;
55575;SDS011;41437;45.478;9.116;2023-03-08T15:55:31;12.07;;;3.90;;
55575;SDS011;41437;45.478;9.116;2023-03-08T15:58:33;11.60;;;3.83;;
55575;SDS011;41437;45.478;9.116;2023-03-08T16:01:36;13.70;;;4.30;;
55575;SDS011;41437;45.478;9.116;2023-03-08T16:04:39;14.00;;;4.20;;
55575;SDS011;41437;45.478;9.116;2023-03-08T16:07:50;11.05;;;4.10;;
55575;SDS011;41437;45.478;9.116;2023-03-08T16:10:56;11.27;;;3.95;;
55575;SDS011;41437;45.478;9.116;2023-03-08T16:14:02;8.13;;;3.85;;
55575;SDS011;41437;45.478;9.116;2023-03-08T16:17:05;9.88;;;4.63;;
55575;SDS011;41437;45.478;9.116;2023-03-08T16:20:08;9.57;;;5.10;;
55575;SDS011;41437;45.478;9.116;2023-03-08T16:23:14;11.35;;;5.25;;
55575;SDS011;41437;45.478;9.116;2023-03-08T16:26:16;13.15;;;5.70;;
55575;SDS011;41437;45.478;9.116;2023-03-08T16:29:18;11.13;;;5.60;;
55575;SDS011;41437;45.478;9.116;2023-03-08T16:32:21;10.70;;;5.23;;
55575;SDS011;41437;45.478;9.116;2023-03-08T16:35:25;13.48;;;5.50;;
55575;SDS011;41437;45.478;9.116;2023-03-08T16:38:28;12.63;;;5.53;;
55575;SDS011;41437;45.478;9.116;2023-03-08T16:41:32;11.50;;;5.82;;
55575;SDS011;41437;45.478;9.116;2023-03-08T16:44:34;10.98;;;6.00;;
55575;SDS011;41437;45.478;9.116;2023-03-08T16:47:36;10.63;;;5.68;;
55575;SDS011;41437;45.478;9.116;2023-03-08T16:50:38;16.63;;;5.47;;
55575;SDS011;41437;45.478;9.116;2023-03-08T16:53:41;12.98;;;6.22;;
55575;SDS011;41437;45.478;9.116;2023-03-08T16:56:44;13.25;;;5.80;;
55575;SDS011;41437;45.478;9.116;2023-03-08T16:59:47;14.68;;;6.05;;
55575;SDS011;41437;45.478;9.116;2023-03-08T17:02:48;10.80;;;5.30;;
55575;SDS011;41437;45.478;9.116;2023-03-08T17:05:53;12.87;;;6.43;;
55575;SDS011;41437;45.478;9.116;2023-03-08T17:08:59;13.65;;;6.03;;
55575;SDS011;41437;45.478;9.116;2023-03-08T17:12:04;11.75;;;6.00;;
55575;SDS011;41437;45.478;9.116;2023-03-08T17:15:07;13.77;;;5.55;;
55575;SDS011;41437;45.478;9.116;2023-03-08T17:18:12;12.55;;;5.80;;
55575;SDS011;41437;45.478;9.116;2023-03-08T17:21:14;14.00;;;6.20;;
55575;SDS011;41437;45.478;9.116;2023-03-08T17:27:30;14.05;;;6.55;;
55575;SDS011;41437;45.478;9.116;2023-03-08T17:30:34;14.15;;;7.05;;
55575;SDS011;41437;45.478;9.116;2023-03-08T17:33:39;16.02;;;7.05;;
55575;SDS011;41437;45.478;9.116;2023-03-08T17:36:42;14.02;;;6.55;;
55575;SDS011;41437;45.478;9.116;2023-03-08T17:39:49;14.70;;;6.55;;
55575;SDS011;41437;45.478;9.116;2023-03-08T17:42:52;14.27;;;6.68;;
55575;SDS011;41437;45.478;9.116;2023-03-08T17:46:00;13.63;;;6.30;;
55575;SDS011;41437;45.478;9.116;2023-03-08T17:49:04;15.02;;;6.47;;
55575;SDS011;41437;45.478;9.116;2023-03-08T17:52:08;11.63;;;6.13;;
55575;SDS011;41437;45.478;9.116;2023-03-08T17:55:14;13.50;;;6.25;;
55575;SDS011;41437;45.478;9.116;2023-03-08T17:58:18;13.07;;;5.85;;
55575;SDS011;41437;45.478;9.116;2023-03-08T18:01:20;12.07;;;6.18;;
55575;SDS011;41437;45.478;9.116;2023-03-08T18:04:25;11.88;;;6.07;;
55575;SDS011;41437;45.478;9.116;2023-03-08T18:07:26;12.23;;;5.82;;
55575;SDS011;41437;45.478;9.116;2023-03-08T18:10:35;11.85;;;5.88;;
55575;SDS011;41437;45.478;9.116;2023-03-08T18:13:37;11.68;;;5.78;;
55575;SDS011;41437;45.478;9.116;2023-03-08T18:16:42;16.02;;;5.60;;
55575;SDS011;41437;45.478;9.116;2023-03-08T18:19:46;15.95;;;6.25;;
55575;SDS011;41437;45.478;9.116;2023-03-08T18:22:51;12.45;;;5.78;;
55575;SDS011;41437;45.478;9.116;2023-03-08T18:25:54;11.00;;;5.88;;
55575;SDS011;41437;45.478;9.116;2023-03-08T18:28:58;13.45;;;5.88;;
55575;SDS011;41437;45.478;9.116;2023-03-08T18:32:00;11.55;;;5.85;;